sensor_id;sensor_type;location;lat;lon;timestamp;temperature;humidity
38746;DHT22;24488;0.000;0.000;2023-09-12T00:00:06;23.80;64.00
38746;DHT22;24488;0.000;0.000;2023-09-12T00:02:31;23.70;63.90
38746;DHT22;24488;0.000;0.000;2023-09-12T00:04:57;23.70;63.90
38746;DHT22;24488;0.000;0.000;2023-09-12T00:07:23;23.70;64.00
38746;DHT22;24488;0.000;0.000;2023-09-12T00:09:48;23.80;64.20
38746;DHT22;24488;0.000;0.000;2023-09-12T00:12:14;23.60;64.80
38746;DHT22;24488;0.000;0.000;2023-09-12T00:14:40;23.70;64.20
38746;DHT22;24488;0.000;0.000;2023-09-12T00:17:06;23.60;64.10
38746;DHT22;24488;0.000;0.000;2023-09-12T00:19:32;23.90;64.40
38746;DHT22;24488;0.000;0.000;2023-09-12T00:21:57;23.80;64.10
38746;DHT22;24488;0.000;0.000;2023-09-12T00:24:23;23.90;64.30
38746;DHT22;24488;0.000;0.000;2023-09-12T00:26:48;23.70;64.20
38746;DHT22;24488;0.000;0.000;2023-09-12T00:29:14;23.70;64.20
38746;DHT22;24488;0.000;0.000;2023-09-12T00:31:39;23.70;64.20
38746;DHT22;24488;0.000;0.000;2023-09-12T00:34:05;23.90;64.40
38746;DHT22;24488;0.000;0.000;2023-09-12T00:36:30;23.70;64.20
38746;DHT22;24488;0.000;0.000;2023-09-12T00:38:58;23.80;64.20
38746;DHT22;24488;0.000;0.000;2023-09-12T00:41:23;23.90;64.60
38746;DHT22;24488;0.000;0.000;2023-09-12T00:43:49;23.90;64.40
38746;DHT22;24488;0.000;0.000;2023-09-12T00:46:17;23.70;64.20
38746;DHT22;24488;0.000;0.000;2023-09-12T00:48:44;23.90;64.30
38746;DHT22;24488;0.000;0.000;2023-09-12T00:51:10;23.70;64.10
38746;DHT22;24488;0.000;0.000;2023-09-12T00:53:35;23.70;64.20
38746;DHT22;24488;0.000;0.000;2023-09-12T00:56:01;23.70;64.10
38746;DHT22;24488;0.000;0.000;2023-09-12T00:58:27;23.60;64.10
38746;DHT22;24488;0.000;0.000;2023-09-12T01:00:53;23.70;64.40
38746;DHT22;24488;0.000;0.000;2023-09-12T01:03:18;23.20;63.90
38746;DHT22;24488;0.000;0.000;2023-09-12T01:05:44;23.80;64.30
38746;DHT22;24488;0.000;0.000;2023-09-12T01:08:10;23.90;64.30
38746;DHT22;24488;0.000;0.000;2023-09-12T01:10:35;23.80;64.30
38746;DHT22;24488;0.000;0.000;2023-09-12T01:13:01;23.70;64.30
38746;DHT22;24488;0.000;0.000;2023-09-12T01:15:26;23.70;64.40
38746;DHT22;24488;0.000;0.000;2023-09-12T01:17:52;23.70;64.20
38746;DHT22;24488;0.000;0.000;2023-09-12T01:20:27;23.80;64.20
38746;DHT22;24488;0.000;0.000;2023-09-12T01:22:57;23.70;64.10
38746;DHT22;24488;0.000;0.000;2023-09-12T01:25:45;23.80;64.20
38746;DHT22;24488;0.000;0.000;2023-09-12T01:28:20;23.70;64.20
38746;DHT22;24488;0.000;0.000;2023-09-12T01:30:49;23.70;64.20
38746;DHT22;24488;0.000;0.000;2023-09-12T01:33:15;23.70;64.20
38746;DHT22;24488;0.000;0.000;2023-09-12T01:35:41;23.70;64.20
38746;DHT22;24488;0.000;0.000;2023-09-12T01:38:07;23.70;64.10
38746;DHT22;24488;0.000;0.000;2023-09-12T01:40:54;23.70;64.20
38746;DHT22;24488;0.000;0.000;2023-09-12T01:43:19;23.70;64.10
38746;DHT22;24488;0.000;0.000;2023-09-12T01:45:55;23.80;64.10
38746;DHT22;24488;0.000;0.000;2023-09-12T01:48:22;23.70;64.10
38746;DHT22;24488;0.000;0.000;2023-09-12T01:50:49;22.70;63.60
38746;DHT22;24488;0.000;0.000;2023-09-12T01:53:15;23.70;64.10
38746;DHT22;24488;0.000;0.000;2023-09-12T01:55:44;23.60;64.10
38746;DHT22;24488;0.000;0.000;2023-09-12T01:58:11;23.90;64.20
38746;DHT22;24488;0.000;0.000;2023-09-12T02:00:37;23.70;64.10
38746;DHT22;24488;0.000;0.000;2023-09-12T02:03:04;23.70;64.20
38746;DHT22;24488;0.000;0.000;2023-09-12T02:05:30;23.70;64.20
38746;DHT22;24488;0.000;0.000;2023-09-12T02:07:56;23.70;64.20
38746;DHT22;24488;0.000;0.000;2023-09-12T02:10:21;23.60;64.10
38746;DHT22;24488;0.000;0.000;2023-09-12T02:12:47;23.70;64.10
38746;DHT22;24488;0.000;0.000;2023-09-12T02:15:12;23.90;64.30
38746;DHT22;24488;0.000;0.000;2023-09-12T02:17:38;23.70;64.10
38746;DHT22;24488;0.000;0.000;2023-09-12T02:20:05;23.70;64.20
38746;DHT22;24488;0.000;0.000;2023-09-12T02:22:34;23.70;64.10
38746;DHT22;24488;0.000;0.000;2023-09-12T02:25:01;23.60;64.00
38746;DHT22;24488;0.000;0.000;2023-09-12T02:27:28;23.70;64.10
38746;DHT22;24488;0.000;0.000;2023-09-12T02:29:54;23.90;64.20
38746;DHT22;24488;0.000;0.000;2023-09-12T02:32:20;23.70;64.10
38746;DHT22;24488;0.000;0.000;2023-09-12T02:34:46;23.70;64.10
38746;DHT22;24488;0.000;0.000;2023-09-12T02:37:11;23.90;64.20
38746;DHT22;24488;0.000;0.000;2023-09-12T02:39:37;23.80;64.20
38746;DHT22;24488;0.000;0.000;2023-09-12T02:42:02;23.70;64.20
38746;DHT22;24488;0.000;0.000;2023-09-12T02:44:28;23.70;64.20
38746;DHT22;24488;0.000;0.000;2023-09-12T02:46:54;23.70;64.30
38746;DHT22;24488;0.000;0.000;2023-09-12T02:49:19;23.70;64.50
38746;DHT22;24488;0.000;0.000;2023-09-12T02:51:45;23.70;64.30
38746;DHT22;24488;0.000;0.000;2023-09-12T02:54:11;24.00;64.30
38746;DHT22;24488;0.000;0.000;2023-09-12T02:56:36;23.90;64.30
38746;DHT22;24488;0.000;0.000;2023-09-12T02:59:02;23.70;64.20
38746;DHT22;24488;0.000;0.000;2023-09-12T03:01:27;23.80;64.20
38746;DHT22;24488;0.000;0.000;2023-09-12T03:03:53;24.00;64.40
38746;DHT22;24488;0.000;0.000;2023-09-12T03:06:19;23.70;64.00
38746;DHT22;24488;0.000;0.000;2023-09-12T03:08:45;23.70;63.90
38746;DHT22;24488;0.000;0.000;2023-09-12T03:11:11;23.90;64.20
38746;DHT22;24488;0.000;0.000;2023-09-12T03:13:37;23.80;64.10
38746;DHT22;24488;0.000;0.000;2023-09-12T03:16:09;23.70;64.20
38746;DHT22;24488;0.000;0.000;2023-09-12T03:18:38;23.70;64.20
38746;DHT22;24488;0.000;0.000;2023-09-12T03:21:03;23.80;64.20
38746;DHT22;24488;0.000;0.000;2023-09-12T03:23:29;23.90;64.20
38746;DHT22;24488;0.000;0.000;2023-09-12T03:25:54;23.70;64.10
38746;DHT22;24488;0.000;0.000;2023-09-12T03:28:20;23.70;64.20
38746;DHT22;24488;0.000;0.000;2023-09-12T03:30:46;23.70;64.20
38746;DHT22;24488;0.000;0.000;2023-09-12T03:33:12;23.70;64.20
38746;DHT22;24488;0.000;0.000;2023-09-12T03:35:38;23.80;64.20
38746;DHT22;24488;0.000;0.000;2023-09-12T03:38:03;23.70;64.20
38746;DHT22;24488;0.000;0.000;2023-09-12T03:40:29;23.90;64.30
38746;DHT22;24488;0.000;0.000;2023-09-12T03:42:58;23.80;64.20
38746;DHT22;24488;0.000;0.000;2023-09-12T03:45:24;23.90;64.20
38746;DHT22;24488;0.000;0.000;2023-09-12T03:47:49;23.70;64.10
38746;DHT22;24488;0.000;0.000;2023-09-12T03:50:16;23.80;64.20
38746;DHT22;24488;0.000;0.000;2023-09-12T03:52:41;23.90;64.50
38746;DHT22;24488;0.000;0.000;2023-09-12T03:55:07;23.80;64.40
38746;DHT22;24488;0.000;0.000;2023-09-12T03:57:33;23.70;64.30
38746;DHT22;24488;0.000;0.000;2023-09-12T03:59:59;23.60;64.30
38746;DHT22;24488;0.000;0.000;2023-09-12T04:02:24;23.70;64.30
38746;DHT22;24488;0.000;0.000;2023-09-12T04:04:50;23.70;64.20
38746;DHT22;24488;0.000;0.000;2023-09-12T04:07:17;23.60;64.10
38746;DHT22;24488;0.000;0.000;2023-09-12T04:09:42;23.60;64.20
38746;DHT22;24488;0.000;0.000;2023-09-12T04:12:08;23.80;64.10
38746;DHT22;24488;0.000;0.000;2023-09-12T04:14:34;23.90;64.40
38746;DHT22;24488;0.000;0.000;2023-09-12T04:17:00;23.80;64.40
38746;DHT22;24488;0.000;0.000;2023-09-12T04:19:26;23.70;65.20
38746;DHT22;24488;0.000;0.000;2023-09-12T04:21:51;23.60;64.40
38746;DHT22;24488;0.000;0.000;2023-09-12T04:24:17;23.60;64.40
38746;DHT22;24488;0.000;0.000;2023-09-12T04:26:43;23.70;64.30
38746;DHT22;24488;0.000;0.000;2023-09-12T04:29:09;23.50;64.20
38746;DHT22;24488;0.000;0.000;2023-09-12T04:31:35;23.60;64.20
38746;DHT22;24488;0.000;0.000;2023-09-12T04:34:01;23.90;64.50
38746;DHT22;24488;0.000;0.000;2023-09-12T04:36:26;23.50;64.30
38746;DHT22;24488;0.000;0.000;2023-09-12T04:38:52;23.50;64.40
38746;DHT22;24488;0.000;0.000;2023-09-12T04:41:17;23.70;64.40
38746;DHT22;24488;0.000;0.000;2023-09-12T04:43:43;23.60;64.30
38746;DHT22;24488;0.000;0.000;2023-09-12T04:46:12;23.90;64.60
38746;DHT22;24488;0.000;0.000;2023-09-12T04:48:38;23.80;64.60
38746;DHT22;24488;0.000;0.000;2023-09-12T04:51:04;23.50;64.30
38746;DHT22;24488;0.000;0.000;2023-09-12T04:53:29;23.80;64.40
38746;DHT22;24488;0.000;0.000;2023-09-12T04:56:01;23.70;64.30
38746;DHT22;24488;0.000;0.000;2023-09-12T04:58:27;23.50;64.20
38746;DHT22;24488;0.000;0.000;2023-09-12T05:00:54;23.60;64.10
38746;DHT22;24488;0.000;0.000;2023-09-12T05:03:20;23.70;64.20
38746;DHT22;24488;0.000;0.000;2023-09-12T05:05:49;23.90;64.20
38746;DHT22;24488;0.000;0.000;2023-09-12T05:08:15;23.70;64.10
38746;DHT22;24488;0.000;0.000;2023-09-12T05:10:43;23.40;63.90
38746;DHT22;24488;0.000;0.000;2023-09-12T05:13:09;23.80;64.20
38746;DHT22;24488;0.000;0.000;2023-09-12T05:15:34;23.60;64.00
38746;DHT22;24488;0.000;0.000;2023-09-12T05:18:02;23.80;64.10
38746;DHT22;24488;0.000;0.000;2023-09-12T05:20:27;23.70;63.90
38746;DHT22;24488;0.000;0.000;2023-09-12T05:22:53;23.60;63.90
38746;DHT22;24488;0.000;0.000;2023-09-12T05:25:19;23.80;64.30
38746;DHT22;24488;0.000;0.000;2023-09-12T05:27:44;23.60;63.90
38746;DHT22;24488;0.000;0.000;2023-09-12T05:30:10;23.60;64.00
38746;DHT22;24488;0.000;0.000;2023-09-12T05:32:36;23.60;64.20
38746;DHT22;24488;0.000;0.000;2023-09-12T05:35:02;23.60;64.10
38746;DHT22;24488;0.000;0.000;2023-09-12T05:37:27;23.60;64.10
38746;DHT22;24488;0.000;0.000;2023-09-12T05:39:54;23.50;64.00
38746;DHT22;24488;0.000;0.000;2023-09-12T05:42:19;23.70;64.10
38746;DHT22;24488;0.000;0.000;2023-09-12T05:44:47;23.40;63.80
38746;DHT22;24488;0.000;0.000;2023-09-12T05:47:14;23.80;63.90
38746;DHT22;24488;0.000;0.000;2023-09-12T05:49:39;23.80;64.00
38746;DHT22;24488;0.000;0.000;2023-09-12T05:52:05;23.80;63.90
38746;DHT22;24488;0.000;0.000;2023-09-12T05:54:31;23.70;63.80
38746;DHT22;24488;0.000;0.000;2023-09-12T05:56:56;23.50;63.70
38746;DHT22;24488;0.000;0.000;2023-09-12T05:59:22;24.30;64.20
38746;DHT22;24488;0.000;0.000;2023-09-12T06:01:48;23.70;63.90
38746;DHT22;24488;0.000;0.000;2023-09-12T06:04:14;23.60;63.80
38746;DHT22;24488;0.000;0.000;2023-09-12T06:06:39;23.70;63.90
38746;DHT22;24488;0.000;0.000;2023-09-12T06:09:05;24.00;64.10
38746;DHT22;24488;0.000;0.000;2023-09-12T06:11:31;23.60;63.80
38746;DHT22;24488;0.000;0.000;2023-09-12T06:13:56;23.60;64.10
38746;DHT22;24488;0.000;0.000;2023-09-12T06:16:22;23.70;63.90
38746;DHT22;24488;0.000;0.000;2023-09-12T06:18:48;23.70;63.90
38746;DHT22;24488;0.000;0.000;2023-09-12T06:21:19;23.80;64.00
38746;DHT22;24488;0.000;0.000;2023-09-12T06:23:46;23.80;63.90
38746;DHT22;24488;0.000;0.000;2023-09-12T06:26:12;23.70;64.00
38746;DHT22;24488;0.000;0.000;2023-09-12T06:28:38;23.80;64.10
38746;DHT22;24488;0.000;0.000;2023-09-12T06:31:03;23.70;63.90
38746;DHT22;24488;0.000;0.000;2023-09-12T06:33:29;23.60;64.00
38746;DHT22;24488;0.000;0.000;2023-09-12T06:35:55;23.60;64.10
38746;DHT22;24488;0.000;0.000;2023-09-12T06:38:21;23.60;64.10
38746;DHT22;24488;0.000;0.000;2023-09-12T06:40:47;23.90;64.20
38746;DHT22;24488;0.000;0.000;2023-09-12T06:43:13;23.50;63.90
38746;DHT22;24488;0.000;0.000;2023-09-12T06:45:42;23.80;63.90
38746;DHT22;24488;0.000;0.000;2023-09-12T06:48:08;23.70;63.80
38746;DHT22;24488;0.000;0.000;2023-09-12T06:50:33;23.60;63.70
38746;DHT22;24488;0.000;0.000;2023-09-12T06:52:59;23.70;63.80
38746;DHT22;24488;0.000;0.000;2023-09-12T06:55:25;23.80;63.80
38746;DHT22;24488;0.000;0.000;2023-09-12T06:57:50;23.80;63.90
38746;DHT22;24488;0.000;0.000;2023-09-12T07:00:16;23.60;63.90
38746;DHT22;24488;0.000;0.000;2023-09-12T07:02:42;23.70;63.90
38746;DHT22;24488;0.000;0.000;2023-09-12T07:05:08;23.70;63.90
38746;DHT22;24488;0.000;0.000;2023-09-12T07:07:33;23.70;64.00
38746;DHT22;24488;0.000;0.000;2023-09-12T07:09:59;23.50;63.90
38746;DHT22;24488;0.000;0.000;2023-09-12T07:12:25;23.60;64.10
38746;DHT22;24488;0.000;0.000;2023-09-12T07:14:51;23.50;64.80
38746;DHT22;24488;0.000;0.000;2023-09-12T07:17:17;23.60;64.30
38746;DHT22;24488;0.000;0.000;2023-09-12T07:19:43;23.60;64.20
38746;DHT22;24488;0.000;0.000;2023-09-12T07:22:08;23.60;64.30
38746;DHT22;24488;0.000;0.000;2023-09-12T07:24:34;23.70;64.40
38746;DHT22;24488;0.000;0.000;2023-09-12T07:26:59;23.50;64.20
38746;DHT22;24488;0.000;0.000;2023-09-12T07:29:25;23.70;64.40
38746;DHT22;24488;0.000;0.000;2023-09-12T07:31:52;23.70;64.40
38746;DHT22;24488;0.000;0.000;2023-09-12T07:34:19;23.60;64.30
38746;DHT22;24488;0.000;0.000;2023-09-12T07:36:45;23.60;65.10
38746;DHT22;24488;0.000;0.000;2023-09-12T07:39:10;23.50;64.20
38746;DHT22;24488;0.000;0.000;2023-09-12T07:41:36;23.60;64.30
38746;DHT22;24488;0.000;0.000;2023-09-12T07:44:02;23.50;64.20
38746;DHT22;24488;0.000;0.000;2023-09-12T07:46:32;23.60;64.30
38746;DHT22;24488;0.000;0.000;2023-09-12T07:48:58;23.60;64.30
38746;DHT22;24488;0.000;0.000;2023-09-12T07:51:23;23.50;64.20
38746;DHT22;24488;0.000;0.000;2023-09-12T07:53:49;23.60;64.30
38746;DHT22;24488;0.000;0.000;2023-09-12T07:56:15;23.60;64.30
38746;DHT22;24488;0.000;0.000;2023-09-12T07:58:40;23.50;64.20
38746;DHT22;24488;0.000;0.000;2023-09-12T08:01:06;23.50;64.20
38746;DHT22;24488;0.000;0.000;2023-09-12T08:03:33;23.60;64.20
38746;DHT22;24488;0.000;0.000;2023-09-12T08:05:59;23.60;64.20
38746;DHT22;24488;0.000;0.000;2023-09-12T08:08:25;23.60;64.30
38746;DHT22;24488;0.000;0.000;2023-09-12T08:10:51;23.70;64.30
38746;DHT22;24488;0.000;0.000;2023-09-12T08:13:17;23.70;64.30
38746;DHT22;24488;0.000;0.000;2023-09-12T08:15:42;23.60;64.30
38746;DHT22;24488;0.000;0.000;2023-09-12T08:18:08;23.50;64.30
38746;DHT22;24488;0.000;0.000;2023-09-12T08:20:33;23.60;64.30
38746;DHT22;24488;0.000;0.000;2023-09-12T08:22:59;23.70;64.20
38746;DHT22;24488;0.000;0.000;2023-09-12T08:25:24;23.80;64.40
38746;DHT22;24488;0.000;0.000;2023-09-12T08:27:50;23.70;64.40
38746;DHT22;24488;0.000;0.000;2023-09-12T08:30:16;23.50;64.30
38746;DHT22;24488;0.000;0.000;2023-09-12T08:32:41;23.70;64.40
38746;DHT22;24488;0.000;0.000;2023-09-12T08:35:10;23.70;64.40
38746;DHT22;24488;0.000;0.000;2023-09-12T08:37:38;23.60;64.30
38746;DHT22;24488;0.000;0.000;2023-09-12T08:40:05;23.60;64.40
38746;DHT22;24488;0.000;0.000;2023-09-12T08:42:36;23.70;64.50
38746;DHT22;24488;0.000;0.000;2023-09-12T08:45:17;23.60;64.50
38746;DHT22;24488;0.000;0.000;2023-09-12T08:47:44;23.60;64.40
38746;DHT22;24488;0.000;0.000;2023-09-12T08:50:11;23.60;64.40
38746;DHT22;24488;0.000;0.000;2023-09-12T08:52:38;23.60;64.50
38746;DHT22;24488;0.000;0.000;2023-09-12T08:55:05;23.70;64.50
38746;DHT22;24488;0.000;0.000;2023-09-12T08:57:32;23.60;64.40
38746;DHT22;24488;0.000;0.000;2023-09-12T08:59:59;23.60;64.50
38746;DHT22;24488;0.000;0.000;2023-09-12T09:02:31;23.60;64.40
38746;DHT22;24488;0.000;0.000;2023-09-12T09:04:58;23.70;64.60
38746;DHT22;24488;0.000;0.000;2023-09-12T09:07:24;23.60;64.50
38746;DHT22;24488;0.000;0.000;2023-09-12T09:09:50;23.80;64.60
38746;DHT22;24488;0.000;0.000;2023-09-12T09:12:19;23.70;64.60
38746;DHT22;24488;0.000;0.000;2023-09-12T09:14:45;23.80;64.60
38746;DHT22;24488;0.000;0.000;2023-09-12T09:17:10;23.80;64.80
38746;DHT22;24488;0.000;0.000;2023-09-12T09:19:41;23.80;64.70
38746;DHT22;24488;0.000;0.000;2023-09-12T09:22:07;23.70;64.60
38746;DHT22;24488;0.000;0.000;2023-09-12T09:24:33;23.60;64.50
38746;DHT22;24488;0.000;0.000;2023-09-12T09:26:59;23.50;64.40
38746;DHT22;24488;0.000;0.000;2023-09-12T09:29:26;23.60;64.40
38746;DHT22;24488;0.000;0.000;2023-09-12T09:31:58;23.80;64.60
38746;DHT22;24488;0.000;0.000;2023-09-12T09:34:26;23.60;64.40
38746;DHT22;24488;0.000;0.000;2023-09-12T09:36:57;23.60;64.50
38746;DHT22;24488;0.000;0.000;2023-09-12T09:39:24;23.60;64.50
38746;DHT22;24488;0.000;0.000;2023-09-12T09:41:54;23.80;64.60
38746;DHT22;24488;0.000;0.000;2023-09-12T09:44:21;23.60;64.40
38746;DHT22;24488;0.000;0.000;2023-09-12T09:46:50;23.60;64.50
38746;DHT22;24488;0.000;0.000;2023-09-12T09:49:19;23.60;64.50
38746;DHT22;24488;0.000;0.000;2023-09-12T09:51:46;23.60;64.40
38746;DHT22;24488;0.000;0.000;2023-09-12T09:54:12;23.60;64.50
38746;DHT22;24488;0.000;0.000;2023-09-12T09:56:47;23.80;64.60
38746;DHT22;24488;0.000;0.000;2023-09-12T09:59:14;23.60;64.60
38746;DHT22;24488;0.000;0.000;2023-09-12T10:01:41;23.60;64.60
38746;DHT22;24488;0.000;0.000;2023-09-12T10:04:08;23.90;64.70
38746;DHT22;24488;0.000;0.000;2023-09-12T10:06:35;23.80;64.70
38746;DHT22;24488;0.000;0.000;2023-09-12T10:09:03;23.80;64.60
38746;DHT22;24488;0.000;0.000;2023-09-12T10:11:31;23.60;64.50
38746;DHT22;24488;0.000;0.000;2023-09-12T10:13:59;23.60;64.50
38746;DHT22;24488;0.000;0.000;2023-09-12T10:16:29;23.50;64.40
38746;DHT22;24488;0.000;0.000;2023-09-12T10:21:45;23.60;64.50
38746;DHT22;24488;0.000;0.000;2023-09-12T10:24:11;23.70;64.60
38746;DHT22;24488;0.000;0.000;2023-09-12T10:26:36;23.70;64.50
38746;DHT22;24488;0.000;0.000;2023-09-12T10:29:08;23.60;64.50
38746;DHT22;24488;0.000;0.000;2023-09-12T10:31:33;23.70;64.50
38746;DHT22;24488;0.000;0.000;2023-09-12T10:33:59;23.80;64.60
38746;DHT22;24488;0.000;0.000;2023-09-12T10:36:26;23.70;64.50
38746;DHT22;24488;0.000;0.000;2023-09-12T10:38:52;23.80;64.60
38746;DHT22;24488;0.000;0.000;2023-09-12T10:41:18;23.70;64.50
38746;DHT22;24488;0.000;0.000;2023-09-12T10:43:44;23.70;64.50
38746;DHT22;24488;0.000;0.000;2023-09-12T10:46:15;23.80;64.60
38746;DHT22;24488;0.000;0.000;2023-09-12T10:48:40;23.60;64.40
38746;DHT22;24488;0.000;0.000;2023-09-12T10:51:06;23.50;64.40
38746;DHT22;24488;0.000;0.000;2023-09-12T10:53:32;23.80;64.60
38746;DHT22;24488;0.000;0.000;2023-09-12T10:58:33;23.60;64.50
38746;DHT22;24488;0.000;0.000;2023-09-12T11:03:52;23.60;64.40
38746;DHT22;24488;0.000;0.000;2023-09-12T11:06:22;23.80;64.60
38746;DHT22;24488;0.000;0.000;2023-09-12T11:12:09;23.60;64.40
38746;DHT22;24488;0.000;0.000;2023-09-12T11:14:35;23.70;64.50
38746;DHT22;24488;0.000;0.000;2023-09-12T11:19:31;23.60;64.50
38746;DHT22;24488;0.000;0.000;2023-09-12T11:22:22;23.60;64.40
38746;DHT22;24488;0.000;0.000;2023-09-12T11:24:51;23.60;64.40
38746;DHT22;24488;0.000;0.000;2023-09-12T11:27:17;23.60;64.50
38746;DHT22;24488;0.000;0.000;2023-09-12T11:29:42;23.50;64.40
38746;DHT22;24488;0.000;0.000;2023-09-12T11:32:08;23.80;64.60
38746;DHT22;24488;0.000;0.000;2023-09-12T11:34:41;23.80;64.60
38746;DHT22;24488;0.000;0.000;2023-09-12T11:37:08;23.60;64.50
38746;DHT22;24488;0.000;0.000;2023-09-12T11:39:35;23.70;64.50
38746;DHT22;24488;0.000;0.000;2023-09-12T11:42:02;23.60;64.50
38746;DHT22;24488;0.000;0.000;2023-09-12T11:44:28;23.60;64.40
38746;DHT22;24488;0.000;0.000;2023-09-12T11:46:57;23.60;64.50
38746;DHT22;24488;0.000;0.000;2023-09-12T11:49:38;23.70;64.50
38746;DHT22;24488;0.000;0.000;2023-09-12T11:52:07;23.70;64.50
38746;DHT22;24488;0.000;0.000;2023-09-12T11:54:34;23.70;64.40
38746;DHT22;24488;0.000;0.000;2023-09-12T11:57:00;23.60;64.40
38746;DHT22;24488;0.000;0.000;2023-09-12T11:59:27;23.90;64.60
38746;DHT22;24488;0.000;0.000;2023-09-12T12:01:54;23.70;64.40
38746;DHT22;24488;0.000;0.000;2023-09-12T12:04:23;23.70;64.40
38746;DHT22;24488;0.000;0.000;2023-09-12T12:06:51;23.70;64.50
38746;DHT22;24488;0.000;0.000;2023-09-12T12:09:17;23.60;65.30
38746;DHT22;24488;0.000;0.000;2023-09-12T12:11:45;23.80;64.70
38746;DHT22;24488;0.000;0.000;2023-09-12T12:14:12;23.30;64.50
38746;DHT22;24488;0.000;0.000;2023-09-12T12:16:40;23.70;64.60
38746;DHT22;24488;0.000;0.000;2023-09-12T12:19:06;23.60;64.50
38746;DHT22;24488;0.000;0.000;2023-09-12T12:21:32;23.70;64.60
38746;DHT22;24488;0.000;0.000;2023-09-12T12:24:01;23.70;64.60
38746;DHT22;24488;0.000;0.000;2023-09-12T12:26:28;23.70;64.50
38746;DHT22;24488;0.000;0.000;2023-09-12T12:28:55;23.70;64.50
38746;DHT22;24488;0.000;0.000;2023-09-12T12:31:21;23.80;64.60
38746;DHT22;24488;0.000;0.000;2023-09-12T12:33:50;23.70;64.60
38746;DHT22;24488;0.000;0.000;2023-09-12T12:36:18;23.80;64.60
38746;DHT22;24488;0.000;0.000;2023-09-12T12:38:44;23.80;64.60
38746;DHT22;24488;0.000;0.000;2023-09-12T12:41:11;23.60;64.40
38746;DHT22;24488;0.000;0.000;2023-09-12T12:43:39;23.70;64.60
38746;DHT22;24488;0.000;0.000;2023-09-12T12:46:09;23.70;64.50
38746;DHT22;24488;0.000;0.000;2023-09-12T12:48:35;23.70;64.60
38746;DHT22;24488;0.000;0.000;2023-09-12T12:51:17;23.70;64.50
38746;DHT22;24488;0.000;0.000;2023-09-12T12:53:55;23.70;64.50
38746;DHT22;24488;0.000;0.000;2023-09-12T12:56:29;23.90;64.70
38746;DHT22;24488;0.000;0.000;2023-09-12T12:58:55;23.60;64.50
38746;DHT22;24488;0.000;0.000;2023-09-12T13:01:23;23.80;64.60
38746;DHT22;24488;0.000;0.000;2023-09-12T13:03:49;23.60;64.50
38746;DHT22;24488;0.000;0.000;2023-09-12T13:06:15;23.70;64.10
38746;DHT22;24488;0.000;0.000;2023-09-12T13:08:46;24.20;65.00
38746;DHT22;24488;0.000;0.000;2023-09-12T13:11:12;23.60;64.50
38746;DHT22;24488;0.000;0.000;2023-09-12T13:13:39;23.90;64.70
38746;DHT22;24488;0.000;0.000;2023-09-12T13:16:05;23.70;64.60
38746;DHT22;24488;0.000;0.000;2023-09-12T13:18:32;23.30;64.40
38746;DHT22;24488;0.000;0.000;2023-09-12T13:20:58;23.80;64.70
38746;DHT22;24488;0.000;0.000;2023-09-12T13:23:23;23.90;64.80
38746;DHT22;24488;0.000;0.000;2023-09-12T13:25:50;23.70;64.70
38746;DHT22;24488;0.000;0.000;2023-09-12T13:28:16;23.80;64.80
38746;DHT22;24488;0.000;0.000;2023-09-12T13:30:42;23.60;64.60
38746;DHT22;24488;0.000;0.000;2023-09-12T13:33:07;25.10;65.50
38746;DHT22;24488;0.000;0.000;2023-09-12T13:35:33;23.70;64.70
38746;DHT22;24488;0.000;0.000;2023-09-12T13:37:59;23.70;64.70
38746;DHT22;24488;0.000;0.000;2023-09-12T13:40:24;23.70;64.70
38746;DHT22;24488;0.000;0.000;2023-09-12T13:42:50;23.60;64.70
38746;DHT22;24488;0.000;0.000;2023-09-12T13:45:15;23.70;64.70
38746;DHT22;24488;0.000;0.000;2023-09-12T13:47:41;23.70;64.70
38746;DHT22;24488;0.000;0.000;2023-09-12T13:50:08;23.70;64.70
38746;DHT22;24488;0.000;0.000;2023-09-12T13:52:33;23.70;64.70
38746;DHT22;24488;0.000;0.000;2023-09-12T13:54:59;23.80;64.70
38746;DHT22;24488;0.000;0.000;2023-09-12T13:57:28;23.70;64.70
38746;DHT22;24488;0.000;0.000;2023-09-12T13:59:54;23.50;64.50
38746;DHT22;24488;0.000;0.000;2023-09-12T14:02:20;23.60;64.50
38746;DHT22;24488;0.000;0.000;2023-09-12T14:04:45;23.70;64.60
38746;DHT22;24488;0.000;0.000;2023-09-12T14:07:11;23.60;64.60
38746;DHT22;24488;0.000;0.000;2023-09-12T14:09:36;23.60;64.60
38746;DHT22;24488;0.000;0.000;2023-09-12T14:12:02;23.70;64.60
38746;DHT22;24488;0.000;0.000;2023-09-12T14:14:28;23.70;64.70
38746;DHT22;24488;0.000;0.000;2023-09-12T14:16:53;23.70;64.60
38746;DHT22;24488;0.000;0.000;2023-09-12T14:19:19;23.70;64.70
38746;DHT22;24488;0.000;0.000;2023-09-12T14:21:45;23.60;64.60
38746;DHT22;24488;0.000;0.000;2023-09-12T14:24:10;23.60;64.60
38746;DHT22;24488;0.000;0.000;2023-09-12T14:26:36;23.70;64.60
38746;DHT22;24488;0.000;0.000;2023-09-12T14:29:01;23.60;64.60
38746;DHT22;24488;0.000;0.000;2023-09-12T14:31:27;23.70;64.60
38746;DHT22;24488;0.000;0.000;2023-09-12T14:33:53;23.80;64.70
38746;DHT22;24488;0.000;0.000;2023-09-12T14:36:18;23.70;64.70
38746;DHT22;24488;0.000;0.000;2023-09-12T14:38:44;23.70;64.60
38746;DHT22;24488;0.000;0.000;2023-09-12T14:41:12;23.90;64.80
38746;DHT22;24488;0.000;0.000;2023-09-12T14:43:38;23.70;64.60
38746;DHT22;24488;0.000;0.000;2023-09-12T14:46:03;23.70;64.70
38746;DHT22;24488;0.000;0.000;2023-09-12T14:48:31;23.80;64.70
38746;DHT22;24488;0.000;0.000;2023-09-12T14:50:59;23.70;64.60
38746;DHT22;24488;0.000;0.000;2023-09-12T14:53:26;23.70;64.60
38746;DHT22;24488;0.000;0.000;2023-09-12T14:55:52;23.70;64.60
38746;DHT22;24488;0.000;0.000;2023-09-12T14:58:18;23.80;64.60
38746;DHT22;24488;0.000;0.000;2023-09-12T15:00:44;23.70;64.60
38746;DHT22;24488;0.000;0.000;2023-09-12T15:03:10;23.60;64.60
38746;DHT22;24488;0.000;0.000;2023-09-12T15:05:35;23.80;64.60
38746;DHT22;24488;0.000;0.000;2023-09-12T15:08:01;23.60;64.60
38746;DHT22;24488;0.000;0.000;2023-09-12T15:10:26;23.70;64.60
38746;DHT22;24488;0.000;0.000;2023-09-12T15:12:52;23.70;64.70
38746;DHT22;24488;0.000;0.000;2023-09-12T15:15:19;23.70;64.60
38746;DHT22;24488;0.000;0.000;2023-09-12T15:17:44;23.90;64.70
38746;DHT22;24488;0.000;0.000;2023-09-12T15:20:10;23.70;64.60
38746;DHT22;24488;0.000;0.000;2023-09-12T15:22:36;23.70;64.70
38746;DHT22;24488;0.000;0.000;2023-09-12T15:25:02;23.70;64.70
38746;DHT22;24488;0.000;0.000;2023-09-12T15:27:28;23.70;64.60
38746;DHT22;24488;0.000;0.000;2023-09-12T15:29:54;23.80;64.70
38746;DHT22;24488;0.000;0.000;2023-09-12T15:32:20;23.70;64.60
38746;DHT22;24488;0.000;0.000;2023-09-12T15:34:46;23.60;64.60
38746;DHT22;24488;0.000;0.000;2023-09-12T15:37:12;23.70;64.70
38746;DHT22;24488;0.000;0.000;2023-09-12T15:39:39;23.70;64.70
38746;DHT22;24488;0.000;0.000;2023-09-12T15:42:05;23.70;64.60
38746;DHT22;24488;0.000;0.000;2023-09-12T15:44:31;23.70;64.70
38746;DHT22;24488;0.000;0.000;2023-09-12T15:46:57;23.70;64.60
38746;DHT22;24488;0.000;0.000;2023-09-12T15:49:23;23.70;65.40
38746;DHT22;24488;0.000;0.000;2023-09-12T15:51:49;23.80;64.60
38746;DHT22;24488;0.000;0.000;2023-09-12T15:54:15;23.70;64.60